Urbandale, IA (50322)

12:18 AM CDT on April 30, 2017 (GMT -0500)
Cross Creek West | | Change Station

Elev 898 ft 41.64 °N, 93.74 °W | Updated 12 seconds ago

Rain
Rain
40.3 °F
Feels Like 36 °F
N
5.8
Wind Variable Wind from NW
Gusts 9.8 mph

Today
High -- | Low -- °F
--% Chance of Precip.
Yesterday
High -- | Low -- °F
Precip. -- in
Pressure 29.99 in
Visibility 3.0 miles
Clouds Mostly Cloudy 600 ft
Overcast 1000 ft
Windchill 36 °F
Dew Point 40 °F
Humidity 99%
Rainfall 0.00 in
Snow Depth Not available.
6:12 AM 8:12 PM
Waxing Crescent, 19% visible
METAR KDSM 300454Z 05012G21KT 3SM -RA BR BKN006 OVC010 05/04 A2998 RMK AO2 CIG 004V008 SLP156 P0004 T00500039 $
Pressure 29.99 in
Visibility 3.0 miles
Clouds Mostly Cloudy 600 ft
Overcast 1000 ft
Windchill 36 °F
Dew Point 40 °F
Humidity 99%
Rainfall 0.00 in
Snow Depth Not available.
6:12 AM 8:12 PM
Waxing Crescent, 19% visible
METAR KDSM 300454Z 05012G21KT 3SM -RA BR BKN006 OVC010 05/04 A2998 RMK AO2 CIG 004V008 SLP156 P0004 T00500039 $

Get Severe Weather Alerts

Thanks for signing up!

Be on the lookout for a verification email in your inbox.

You'll start receiving the daily forecast at 8 AM.

×

10-Day Weather Forecast

Almanac

Astronomy

Apr. 30, 2017 Rise Set
Actual Time
Civil Twilight
Nautical Twilight
Astronomical Twilight
Moon
Length of Visible Light
Length of Day
Tomorrow will be .
, % of the Moon is Illuminated

Today's Extremes

State Highs State Lows

Community

WunderPhotos

WunderBlog® & News

Nearby

Air Quality

  Air Quality AQ Index Pollutant
Not available.

Snow Depth

Station Depth Elevation

Earthquake Activity

City Distance Mag. Time & Date
Minimum magnitude displayed is 2.5.

Coastal Water Temperatures

Place Temperature

Stations

Nearby Weather Stations

Station Location Temp. Windchill Dew Point Humidity Wind Precip. Elev Updated Type
                   

Watches & Warnings

There are currently no watches in effect.